Página principal
METAR-TAF:

METAR-TAF

Aeroportos :

Lampang, Tailândia

latitude: 18-17N, longitude: 099-31E, altura: 241 m

Observação actual do tempo

O boletim foi feito há 42 minutos, às 04:00 UTC
Vento 3 kt com direcção variável
Temperatura 30°C
Humidade 43%
Pressão 1016 hPa
Visibilidade: 4000 m
bruma

METAR: VTCL 230400Z VRB03KT 4000 HZ NSC 30/16 Q1016 NOSIG

Hora: 11:42 (04:42 UTC)

Previsão

O boletim foi feito há 5 horas e 42 minutos, às 23:00 UTC
Previsão válida de 23 às 00 UTC a 23 às 24 UTC
Vento 5 kt de sudoeste
Visibilidade: 3000 m
neblina
Tornando-se
de 23 às 01 UTC a 23 às 03 UTC
Visibilidade: 9000 m

TAF: VTCL 222300Z 2300/2324 22005KT 3000 BR NSC BECMG 2301/2303 9000 NSW

Observações e previsões do tempo de mais de 4000 aeroportos (mensagens METAR e TAF).

As estações disponíveis são os pontos amarelos e vermelhos sobre o mapa.

Mova o rato sobre o mapa para ver o nome da estação.

Depois clique no ponto para visualizar as observações e previsões meteorológicas.

Para alterar o mapa : clique nos botões verdes com uma cruz preta para aumentar o zoom; no botão verde com uma pitada de zoom; ou nas setas verdes para mapas adjacentes.


METAR-TAF: